sensor_id;sensor_type;location;lat;lon;timestamp;pressure;altitude;pressure_sealevel;temperature;humidity
44127;BME280;29786;50.798;7.302;2023-03-04T00:04:35;100070;;;0.51;100
44127;BME280;29786;50.798;7.302;2023-03-04T00:09:31;100070;;;0.61;100
44127;BME280;29786;50.798;7.302;2023-03-04T00:14:28;100070;;;0.62;100
44127;BME280;29786;50.798;7.302;2023-03-04T00:20:38;100070;;;0.65;100
44127;BME280;29786;50.798;7.302;2023-03-04T00:25:35;100070;;;0.64;100
44127;BME280;29786;50.798;7.302;2023-03-04T00:30:31;100060;;;0.57;100
44127;BME280;29786;50.798;7.302;2023-03-04T00:35:28;100060;;;0.6;100
44127;BME280;29786;50.798;7.302;2023-03-04T00:41:39;100060;;;0.62;100
44127;BME280;29786;50.798;7.302;2023-03-04T00:45:29;100060;;;0.56;100
44127;BME280;29786;50.798;7.302;2023-03-04T00:50:26;100060;;;0.49;100
44127;BME280;29786;50.798;7.302;2023-03-04T00:56:36;100070;;;0.42;100
44127;BME280;29786;50.798;7.302;2023-03-04T01:01:33;100060;;;0.46;100
44127;BME280;29786;50.798;7.302;2023-03-04T01:06:30;100050;;;0.47;100
44127;BME280;29786;50.798;7.302;2023-03-04T01:17:37;100050;;;0.52;100
44127;BME280;29786;50.798;7.302;2023-03-04T01:22:33;100050;;;0.65;100
44127;BME280;29786;50.798;7.302;2023-03-04T01:27:30;100050;;;0.76;100
44127;BME280;29786;50.798;7.302;2023-03-04T01:32:26;100040;;;0.71;100
44127;BME280;29786;50.798;7.302;2023-03-04T01:38:37;100030;;;0.76;100
44127;BME280;29786;50.798;7.302;2023-03-04T01:43:34;100020;;;0.75;100
44127;BME280;29786;50.798;7.302;2023-03-04T01:48:31;100010;;;0.76;100
44127;BME280;29786;50.798;7.302;2023-03-04T01:53:27;100010;;;0.76;100
44127;BME280;29786;50.798;7.302;2023-03-04T01:59:37;100010;;;0.88;100
44127;BME280;29786;50.798;7.302;2023-03-04T02:04:34;100010;;;0.88;100
44127;BME280;29786;50.798;7.302;2023-03-04T02:09:31;100000;;;0.82;100
44127;BME280;29786;50.798;7.302;2023-03-04T02:14:27;100010;;;0.77;100
44127;BME280;29786;50.798;7.302;2023-03-04T02:20:42;99990;;;0.79;100
44127;BME280;29786;50.798;7.302;2023-03-04T02:25:36;99990;;;0.74;100
44127;BME280;29786;50.798;7.302;2023-03-04T02:30:31;99990;;;0.8;100
44127;BME280;29786;50.798;7.302;2023-03-04T02:41:38;99990;;;0.73;100
44127;BME280;29786;50.798;7.302;2023-03-04T02:46:34;99990;;;0.81;100
44127;BME280;29786;50.798;7.302;2023-03-04T02:51:31;99990;;;0.93;100
44127;BME280;29786;50.798;7.302;2023-03-04T02:56:27;99980;;;0.99;100
44127;BME280;29786;50.798;7.302;2023-03-04T03:02:38;99970;;;0.97;100
44127;BME280;29786;50.798;7.302;2023-03-04T03:07:35;99980;;;0.76;100
44127;BME280;29786;50.798;7.302;2023-03-04T03:12:31;99970;;;0.99;100
44127;BME280;29786;50.798;7.302;2023-03-04T03:17:28;99980;;;0.84;100
44127;BME280;29786;50.798;7.302;2023-03-04T03:23:38;99960;;;0.93;100
44127;BME280;29786;50.798;7.302;2023-03-04T03:28:35;99960;;;1.03;100
44127;BME280;29786;50.798;7.302;2023-03-04T03:33:32;99960;;;1.13;100
44127;BME280;29786;50.798;7.302;2023-03-04T03:38:28;99950;;;1.04;100
44127;BME280;29786;50.798;7.302;2023-03-04T03:44:39;99950;;;1.05;100
44127;BME280;29786;50.798;7.302;2023-03-04T03:49:35;99950;;;1.28;100
44127;BME280;29786;50.798;7.302;2023-03-04T03:54:32;99950;;;1.12;100
44127;BME280;29786;50.798;7.302;2023-03-04T03:59:28;99950;;;1.2;100
44127;BME280;29786;50.798;7.302;2023-03-04T04:05:39;99940;;;1.21;100
44127;BME280;29786;50.798;7.302;2023-03-04T04:10:35;99940;;;1.23;100
44127;BME280;29786;50.798;7.302;2023-03-04T04:15:32;99940;;;1.2;100
44127;BME280;29786;50.798;7.302;2023-03-04T04:20:28;99940;;;1.16;100
44127;BME280;29786;50.798;7.302;2023-03-04T04:25:25;99940;;;1.31;100
44127;BME280;29786;50.798;7.302;2023-03-04T04:31:36;99940;;;1.33;100
44127;BME280;29786;50.798;7.302;2023-03-04T04:36:32;99910;;;1.13;100
44127;BME280;29786;50.798;7.302;2023-03-04T04:41:30;99930;;;1.28;100
44127;BME280;29786;50.798;7.302;2023-03-04T04:46:25;99930;;;1.35;100
44127;BME280;29786;50.798;7.302;2023-03-04T04:52:36;99940;;;1.37;100
44127;BME280;29786;50.798;7.302;2023-03-04T04:57:33;99920;;;1.23;100
44127;BME280;29786;50.798;7.302;2023-03-04T05:02:29;99930;;;1.37;100
44127;BME280;29786;50.798;7.302;2023-03-04T05:08:40;99940;;;1.36;100
44127;BME280;29786;50.798;7.302;2023-03-04T05:13:36;99940;;;1.42;100
44127;BME280;29786;50.798;7.302;2023-03-04T05:18:33;99920;;;1.36;100
44127;BME280;29786;50.798;7.302;2023-03-04T05:23:30;99940;;;1.46;100
44127;BME280;29786;50.798;7.302;2023-03-04T05:29:40;99940;;;1.33;100
44127;BME280;29786;50.798;7.302;2023-03-04T05:34:36;99940;;;1.24;100
44127;BME280;29786;50.798;7.302;2023-03-04T05:39:33;99940;;;1.42;100
44127;BME280;29786;50.798;7.302;2023-03-04T05:44:29;99940;;;1.37;100
44127;BME280;29786;50.798;7.302;2023-03-04T05:49:26;99940;;;1.36;100
44127;BME280;29786;50.798;7.302;2023-03-04T05:55:37;99950;;;1.38;100
44127;BME280;29786;50.798;7.302;2023-03-04T06:00:33;99950;;;1.44;100
44127;BME280;29786;50.798;7.302;2023-03-04T06:05:30;99950;;;1.43;100
44127;BME280;29786;50.798;7.302;2023-03-04T06:10:26;99960;;;1.46;100
44127;BME280;29786;50.798;7.302;2023-03-04T06:16:37;99960;;;1.53;100
44127;BME280;29786;50.798;7.302;2023-03-04T06:21:33;99960;;;1.6;100
44127;BME280;29786;50.798;7.302;2023-03-04T06:26:30;99960;;;1.6;100
44127;BME280;29786;50.798;7.302;2023-03-04T06:31:26;99960;;;1.69;100
44127;BME280;29786;50.798;7.302;2023-03-04T06:37:37;99970;;;1.9;100
44127;BME280;29786;50.798;7.302;2023-03-04T06:42:34;99970;;;2.09;100
44127;BME280;29786;50.798;7.302;2023-03-04T06:47:30;99970;;;2.01;100
44127;BME280;29786;50.798;7.302;2023-03-04T06:52:27;99980;;;2.13;100
44127;BME280;29786;50.798;7.302;2023-03-04T06:58:38;99980;;;2.14;100
44127;BME280;29786;50.798;7.302;2023-03-04T07:03:34;99990;;;2.08;100
44127;BME280;29786;50.798;7.302;2023-03-04T07:08:30;99990;;;2.09;100
44127;BME280;29786;50.798;7.302;2023-03-04T07:19:38;100000;;;2.04;100
44127;BME280;29786;50.798;7.302;2023-03-04T07:24:34;100000;;;2.08;100
44127;BME280;29786;50.798;7.302;2023-03-04T07:29:31;100000;;;2.18;100
44127;BME280;29786;50.798;7.302;2023-03-04T07:34:27;100010;;;2.2;100
44127;BME280;29786;50.798;7.302;2023-03-04T07:40:38;100010;;;2.28;100
44127;BME280;29786;50.798;7.302;2023-03-04T07:45:34;100010;;;2.42;100
44127;BME280;29786;50.798;7.302;2023-03-04T07:50:31;100010;;;2.43;100
44127;BME280;29786;50.798;7.302;2023-03-04T07:55:28;100010;;;2.53;100
44127;BME280;29786;50.798;7.302;2023-03-04T08:01:38;100010;;;2.56;100
44127;BME280;29786;50.798;7.302;2023-03-04T08:06:35;100010;;;2.63;100
44127;BME280;29786;50.798;7.302;2023-03-04T08:11:32;100020;;;2.76;100
44127;BME280;29786;50.798;7.302;2023-03-04T08:16:28;100010;;;2.78;100
44127;BME280;29786;50.798;7.302;2023-03-04T08:22:38;100020;;;2.92;100
44127;BME280;29786;50.798;7.302;2023-03-04T08:27:35;100020;;;2.88;100
44127;BME280;29786;50.798;7.302;2023-03-04T08:32:32;100020;;;2.9;100
44127;BME280;29786;50.798;7.302;2023-03-04T08:37:28;100020;;;3.16;100
44127;BME280;29786;50.798;7.302;2023-03-04T08:42:25;100020;;;3.21;100
44127;BME280;29786;50.798;7.302;2023-03-04T08:48:35;100030;;;3.22;100
44127;BME280;29786;50.798;7.302;2023-03-04T08:53:32;100030;;;3.4;100
44127;BME280;29786;50.798;7.302;2023-03-04T08:58:28;100030;;;3.32;100
44127;BME280;29786;50.798;7.302;2023-03-04T09:03:33;100030;;;3.31;100
44127;BME280;29786;50.798;7.302;2023-03-04T09:08:30;100020;;;3.45;100
44127;BME280;29786;50.798;7.302;2023-03-04T09:13:27;100030;;;3.5;100
44127;BME280;29786;50.798;7.302;2023-03-04T09:19:37;100030;;;3.53;100
44127;BME280;29786;50.798;7.302;2023-03-04T09:24:33;100030;;;3.63;100
44127;BME280;29786;50.798;7.302;2023-03-04T09:29:30;100030;;;3.56;100
44127;BME280;29786;50.798;7.302;2023-03-04T09:34:26;100030;;;3.57;100
44127;BME280;29786;50.798;7.302;2023-03-04T09:40:39;100030;;;3.55;100
44127;BME280;29786;50.798;7.302;2023-03-04T09:45:41;100030;;;3.85;100
44127;BME280;29786;50.798;7.302;2023-03-04T09:50:30;100030;;;4.14;100
44127;BME280;29786;50.798;7.302;2023-03-04T09:55:29;100030;;;3.91;100
44127;BME280;29786;50.798;7.302;2023-03-04T10:01:41;100030;;;4.06;100
44127;BME280;29786;50.798;7.302;2023-03-04T10:06:34;100010;;;4.77;100
44127;BME280;29786;50.798;7.302;2023-03-04T10:11:48;100010;;;4.94;100
44127;BME280;29786;50.798;7.302;2023-03-04T10:16:30;100000;;;5.08;100
44127;BME280;29786;50.798;7.302;2023-03-04T10:22:43;100000;;;5.16;100
44127;BME280;29786;50.798;7.302;2023-03-04T10:27:34;100000;;;6.05;100
44127;BME280;29786;50.798;7.302;2023-03-04T10:32:31;99990;;;6.25;100
44127;BME280;29786;50.798;7.302;2023-03-04T10:37:41;99990;;;5.21;100
44127;BME280;29786;50.798;7.302;2023-03-04T10:43:38;99990;;;4.92;100
44127;BME280;29786;50.798;7.302;2023-03-04T10:48:34;100000;;;4.64;100
44127;BME280;29786;50.798;7.302;2023-03-04T10:53:32;100000;;;4.96;100
44127;BME280;29786;50.798;7.302;2023-03-04T10:58:27;99990;;;5.03;100
44127;BME280;29786;50.798;7.302;2023-03-04T11:04:38;99990;;;5.23;100
44127;BME280;29786;50.798;7.302;2023-03-04T11:09:35;99980;;;5.05;100
44127;BME280;29786;50.798;7.302;2023-03-04T11:14:36;99980;;;4.85;100
44127;BME280;29786;50.798;7.302;2023-03-04T11:19:29;99980;;;5.07;100
44127;BME280;29786;50.798;7.302;2023-03-04T11:25:41;99970;;;5.54;100
44127;BME280;29786;50.798;7.302;2023-03-04T11:30:41;99970;;;5.33;100
44127;BME280;29786;50.798;7.302;2023-03-04T11:35:33;99960;;;5.74;100
44127;BME280;29786;50.798;7.302;2023-03-04T11:40:38;99970;;;5.85;100
44127;BME280;29786;50.798;7.302;2023-03-04T11:51:37;99960;;;5.67;100
44127;BME280;29786;50.798;7.302;2023-03-04T11:56:34;99950;;;5.8;100
44127;BME280;29786;50.798;7.302;2023-03-04T12:01:32;99960;;;5.46;100
44127;BME280;29786;50.798;7.302;2023-03-04T12:08:14;99940;;;5.5;100
44127;BME280;29786;50.798;7.302;2023-03-04T12:13:41;99940;;;5.33;100
44127;BME280;29786;50.798;7.302;2023-03-04T12:22:40;99930;;;5.4;100
44127;BME280;29786;50.798;7.302;2023-03-04T12:28:50;99920;;;5.14;100
44127;BME280;29786;50.798;7.302;2023-03-04T12:33:41;99910;;;5.29;100
44127;BME280;29786;50.798;7.302;2023-03-04T12:38:39;99890;;;5.16;100
44127;BME280;29786;50.798;7.302;2023-03-04T12:43:34;99900;;;5.26;100
44127;BME280;29786;50.798;7.302;2023-03-04T12:50:40;99900;;;5.41;100
44127;BME280;29786;50.798;7.302;2023-03-04T12:54:38;99900;;;5.1;100
44127;BME280;29786;50.798;7.302;2023-03-04T12:59:36;99880;;;4.69;100
44127;BME280;29786;50.798;7.302;2023-03-04T13:04:35;99890;;;4.88;100
44127;BME280;29786;50.798;7.302;2023-03-04T13:09:27;99890;;;4.9;100
44127;BME280;29786;50.798;7.302;2023-03-04T13:15:36;99880;;;4.92;100
44127;BME280;29786;50.798;7.302;2023-03-04T13:20:37;99870;;;5.25;100
44127;BME280;29786;50.798;7.302;2023-03-04T13:25:46;99870;;;5.47;100
44127;BME280;29786;50.798;7.302;2023-03-04T13:30:41;99860;;;5.59;100
44127;BME280;29786;50.798;7.302;2023-03-04T13:36:53;99850;;;5.81;100
44127;BME280;29786;50.798;7.302;2023-03-04T13:41:45;99840;;;5.54;100
44127;BME280;29786;50.798;7.302;2023-03-04T13:46:38;99850;;;5.51;100
44127;BME280;29786;50.798;7.302;2023-03-04T13:57:37;99840;;;5.55;100
44127;BME280;29786;50.798;7.302;2023-03-04T14:02:33;99840;;;5.55;100
44127;BME280;29786;50.798;7.302;2023-03-04T14:07:32;99830;;;5.45;100
44127;BME280;29786;50.798;7.302;2023-03-04T14:12:27;99820;;;5.56;100
44127;BME280;29786;50.798;7.302;2023-03-04T14:18:37;99810;;;5.76;100
44127;BME280;29786;50.798;7.302;2023-03-04T14:23:34;99800;;;6.04;100
44127;BME280;29786;50.798;7.302;2023-03-04T14:28:30;99810;;;5.98;100
44127;BME280;29786;50.798;7.302;2023-03-04T14:33:27;99790;;;5.87;100
44127;BME280;29786;50.798;7.302;2023-03-04T14:39:37;99780;;;5.87;100
44127;BME280;29786;50.798;7.302;2023-03-04T14:44:34;99770;;;5.75;100
44127;BME280;29786;50.798;7.302;2023-03-04T14:49:31;99780;;;5.65;100
44127;BME280;29786;50.798;7.302;2023-03-04T14:54:29;99770;;;5.49;100
44127;BME280;29786;50.798;7.302;2023-03-04T15:00:38;99770;;;5.51;100
44127;BME280;29786;50.798;7.302;2023-03-04T15:05:34;99770;;;5.29;100
44127;BME280;29786;50.798;7.302;2023-03-04T15:10:32;99770;;;5.26;100
44127;BME280;29786;50.798;7.302;2023-03-04T15:21:38;99750;;;5.15;100
44127;BME280;29786;50.798;7.302;2023-03-04T15:26:37;99750;;;5.25;100
44127;BME280;29786;50.798;7.302;2023-03-04T15:31:31;99750;;;5.26;100
44127;BME280;29786;50.798;7.302;2023-03-04T15:36:27;99740;;;5.21;100
44127;BME280;29786;50.798;7.302;2023-03-04T15:42:38;99740;;;5.2;100
44127;BME280;29786;50.798;7.302;2023-03-04T15:47:34;99740;;;5.25;100
44127;BME280;29786;50.798;7.302;2023-03-04T15:52:31;99740;;;5.34;100
44127;BME280;29786;50.798;7.302;2023-03-04T15:57:27;99740;;;5.2;100
44127;BME280;29786;50.798;7.302;2023-03-04T16:03:38;99750;;;5.16;100
44127;BME280;29786;50.798;7.302;2023-03-04T16:08:35;99750;;;5.1;100
44127;BME280;29786;50.798;7.302;2023-03-04T16:13:31;99740;;;5.17;100
44127;BME280;29786;50.798;7.302;2023-03-04T16:18:28;99750;;;5.07;100
44127;BME280;29786;50.798;7.302;2023-03-04T16:24:38;99750;;;4.96;100
44127;BME280;29786;50.798;7.302;2023-03-04T16:29:35;99750;;;4.64;100
44127;BME280;29786;50.798;7.302;2023-03-04T16:34:32;99740;;;4.51;100
44127;BME280;29786;50.798;7.302;2023-03-04T16:39:28;99730;;;4.51;100
44127;BME280;29786;50.798;7.302;2023-03-04T16:44:25;99730;;;4.46;100
44127;BME280;29786;50.798;7.302;2023-03-04T16:50:35;99750;;;4.48;100
44127;BME280;29786;50.798;7.302;2023-03-04T16:55:32;99730;;;4.53;100
44127;BME280;29786;50.798;7.302;2023-03-04T17:00:28;99730;;;4.5;100
44127;BME280;29786;50.798;7.302;2023-03-04T17:06:39;99730;;;4.39;100
44127;BME280;29786;50.798;7.302;2023-03-04T17:11:36;99730;;;4.31;100
44127;BME280;29786;50.798;7.302;2023-03-04T17:16:32;99710;;;4.17;100
44127;BME280;29786;50.798;7.302;2023-03-04T17:21:37;99730;;;4.21;100
44127;BME280;29786;50.798;7.302;2023-03-04T17:26:33;99730;;;4.09;100
44127;BME280;29786;50.798;7.302;2023-03-04T17:31:30;99730;;;4.01;100
44127;BME280;29786;50.798;7.302;2023-03-04T17:36:26;99740;;;4.01;100
44127;BME280;29786;50.798;7.302;2023-03-04T17:42:37;99740;;;3.99;100
44127;BME280;29786;50.798;7.302;2023-03-04T17:47:34;99750;;;4;100
44127;BME280;29786;50.798;7.302;2023-03-04T17:52:30;99750;;;3.93;100
44127;BME280;29786;50.798;7.302;2023-03-04T17:57:27;99750;;;3.94;100
44127;BME280;29786;50.798;7.302;2023-03-04T18:03:37;99760;;;3.96;100
44127;BME280;29786;50.798;7.302;2023-03-04T18:08:34;99750;;;3.98;100
44127;BME280;29786;50.798;7.302;2023-03-04T18:13:30;99750;;;3.96;100
44127;BME280;29786;50.798;7.302;2023-03-04T18:18:27;99750;;;3.94;100
44127;BME280;29786;50.798;7.302;2023-03-04T18:24:38;99740;;;3.95;100
44127;BME280;29786;50.798;7.302;2023-03-04T18:29:34;99740;;;3.96;100
44127;BME280;29786;50.798;7.302;2023-03-04T18:34:31;99740;;;3.94;100
44127;BME280;29786;50.798;7.302;2023-03-04T18:39:27;99740;;;3.93;100
44127;BME280;29786;50.798;7.302;2023-03-04T18:45:38;99740;;;3.92;100
44127;BME280;29786;50.798;7.302;2023-03-04T18:50:34;99740;;;3.94;100
44127;BME280;29786;50.798;7.302;2023-03-04T18:55:31;99740;;;3.92;100
44127;BME280;29786;50.798;7.302;2023-03-04T19:00:27;99730;;;3.91;100
44127;BME280;29786;50.798;7.302;2023-03-04T19:06:38;99730;;;3.89;100
44127;BME280;29786;50.798;7.302;2023-03-04T19:11:35;99730;;;3.9;100
44127;BME280;29786;50.798;7.302;2023-03-04T19:16:31;99740;;;3.9;100
44127;BME280;29786;50.798;7.302;2023-03-04T19:21:28;99730;;;3.84;100
44127;BME280;29786;50.798;7.302;2023-03-04T19:27:39;99740;;;3.81;100
44127;BME280;29786;50.798;7.302;2023-03-04T19:32:35;99740;;;3.83;100
44127;BME280;29786;50.798;7.302;2023-03-04T19:37:31;99750;;;3.81;100
44127;BME280;29786;50.798;7.302;2023-03-04T19:42:28;99740;;;3.76;100
44127;BME280;29786;50.798;7.302;2023-03-04T19:48:39;99740;;;3.91;100
44127;BME280;29786;50.798;7.302;2023-03-04T19:53:36;99740;;;3.96;100
44127;BME280;29786;50.798;7.302;2023-03-04T19:58:32;99740;;;4.02;100
44127;BME280;29786;50.798;7.302;2023-03-04T20:03:28;99740;;;4.02;100
44127;BME280;29786;50.798;7.302;2023-03-04T20:09:39;99750;;;4;100
44127;BME280;29786;50.798;7.302;2023-03-04T20:14:35;99750;;;4;100
44127;BME280;29786;50.798;7.302;2023-03-04T20:19:32;99730;;;3.9;100
44127;BME280;29786;50.798;7.302;2023-03-04T20:24:28;99750;;;4.01;100
44127;BME280;29786;50.798;7.302;2023-03-04T20:30:39;99740;;;4.04;100
44127;BME280;29786;50.798;7.302;2023-03-04T20:35:36;99740;;;4.07;100
44127;BME280;29786;50.798;7.302;2023-03-04T20:40:32;99720;;;4.02;100
44127;BME280;29786;50.798;7.302;2023-03-04T20:45:29;99740;;;4.16;100
44127;BME280;29786;50.798;7.302;2023-03-04T20:50:25;99740;;;4.07;100
44127;BME280;29786;50.798;7.302;2023-03-04T20:56:36;99750;;;4.06;100
44127;BME280;29786;50.798;7.302;2023-03-04T21:01:33;99720;;;3.98;100
44127;BME280;29786;50.798;7.302;2023-03-04T21:06:29;99740;;;4.01;100
44127;BME280;29786;50.798;7.302;2023-03-04T21:11:26;99730;;;4.01;100
44127;BME280;29786;50.798;7.302;2023-03-04T21:17:36;99730;;;4;100
44127;BME280;29786;50.798;7.302;2023-03-04T21:27:29;99730;;;3.92;100
44127;BME280;29786;50.798;7.302;2023-03-04T21:32:26;99720;;;3.9;100
44127;BME280;29786;50.798;7.302;2023-03-04T21:38:36;99720;;;3.92;100
44127;BME280;29786;50.798;7.302;2023-03-04T21:43:33;99720;;;3.92;100
44127;BME280;29786;50.798;7.302;2023-03-04T21:48:30;99720;;;3.92;100
44127;BME280;29786;50.798;7.302;2023-03-04T21:53:26;99720;;;3.9;100
44127;BME280;29786;50.798;7.302;2023-03-04T21:59:37;99730;;;3.92;100
44127;BME280;29786;50.798;7.302;2023-03-04T22:04:33;99720;;;3.83;100
44127;BME280;29786;50.798;7.302;2023-03-04T22:09:30;99720;;;3.84;100
44127;BME280;29786;50.798;7.302;2023-03-04T22:14:26;99710;;;3.9;100
44127;BME280;29786;50.798;7.302;2023-03-04T22:20:38;99710;;;4.02;100
44127;BME280;29786;50.798;7.302;2023-03-04T22:25:34;99720;;;4;100
44127;BME280;29786;50.798;7.302;2023-03-04T22:30:30;99720;;;4;100
44127;BME280;29786;50.798;7.302;2023-03-04T22:35:26;99720;;;3.98;100
44127;BME280;29786;50.798;7.302;2023-03-04T22:41:37;99710;;;3.89;100
44127;BME280;29786;50.798;7.302;2023-03-04T22:46:35;99710;;;3.91;100
44127;BME280;29786;50.798;7.302;2023-03-04T22:51:30;99710;;;3.96;100
44127;BME280;29786;50.798;7.302;2023-03-04T22:56:27;99700;;;3.91;100
44127;BME280;29786;50.798;7.302;2023-03-04T23:02:37;99700;;;3.83;100
44127;BME280;29786;50.798;7.302;2023-03-04T23:07:34;99700;;;3.84;100
44127;BME280;29786;50.798;7.302;2023-03-04T23:12:31;99690;;;3.8;100
44127;BME280;29786;50.798;7.302;2023-03-04T23:17:27;99690;;;3.78;100
44127;BME280;29786;50.798;7.302;2023-03-04T23:23:38;99690;;;3.69;100
44127;BME280;29786;50.798;7.302;2023-03-04T23:28:34;99690;;;3.67;100
44127;BME280;29786;50.798;7.302;2023-03-04T23:33:31;99690;;;3.59;100
44127;BME280;29786;50.798;7.302;2023-03-04T23:38:27;99680;;;3.53;100
44127;BME280;29786;50.798;7.302;2023-03-04T23:44:38;99680;;;3.5;100
44127;BME280;29786;50.798;7.302;2023-03-04T23:49:34;99680;;;3.47;100
44127;BME280;29786;50.798;7.302;2023-03-04T23:54:31;99680;;;3.49;100
44127;BME280;29786;50.798;7.302;2023-03-04T23:59:28;99680;;;3.49;100
